sensor_id;sensor_type;location;lat;lon;timestamp;P1;durP1;ratioP1;P2;durP2;ratioP2
261;SDS011;114;48.260;10.988;2023-04-08T00:01:51;6.40;;;5.80;;
261;SDS011;114;48.260;10.988;2023-04-08T00:04:17;7.10;;;6.03;;
261;SDS011;114;48.260;10.988;2023-04-08T00:06:44;11.73;;;6.33;;
261;SDS011;114;48.260;10.988;2023-04-08T00:09:10;7.10;;;6.53;;
261;SDS011;114;48.260;10.988;2023-04-08T00:11:35;6.23;;;5.53;;
261;SDS011;114;48.260;10.988;2023-04-08T00:14:02;7.53;;;6.67;;
261;SDS011;114;48.260;10.988;2023-04-08T00:16:28;7.33;;;6.67;;
261;SDS011;114;48.260;10.988;2023-04-08T00:18:55;7.23;;;5.83;;
261;SDS011;114;48.260;10.988;2023-04-08T00:21:20;6.90;;;6.40;;
261;SDS011;114;48.260;10.988;2023-04-08T00:23:47;9.07;;;6.93;;
261;SDS011;114;48.260;10.988;2023-04-08T00:26:13;7.73;;;6.73;;
261;SDS011;114;48.260;10.988;2023-04-08T00:28:39;5.83;;;5.43;;
261;SDS011;114;48.260;10.988;2023-04-08T00:31:06;6.93;;;5.97;;
261;SDS011;114;48.260;10.988;2023-04-08T00:33:33;8.07;;;5.90;;
261;SDS011;114;48.260;10.988;2023-04-08T00:35:59;6.40;;;5.83;;
261;SDS011;114;48.260;10.988;2023-04-08T00:38:24;6.60;;;6.00;;
261;SDS011;114;48.260;10.988;2023-04-08T00:40:50;5.73;;;5.33;;
261;SDS011;114;48.260;10.988;2023-04-08T00:43:16;6.53;;;5.93;;
261;SDS011;114;48.260;10.988;2023-04-08T00:45:45;6.87;;;6.23;;
261;SDS011;114;48.260;10.988;2023-04-08T00:48:11;9.93;;;5.73;;
261;SDS011;114;48.260;10.988;2023-04-08T00:50:37;6.23;;;5.63;;
261;SDS011;114;48.260;10.988;2023-04-08T00:53:03;9.80;;;5.80;;
261;SDS011;114;48.260;10.988;2023-04-08T00:55:28;6.03;;;5.53;;
261;SDS011;114;48.260;10.988;2023-04-08T00:57:54;6.83;;;5.33;;
261;SDS011;114;48.260;10.988;2023-04-08T01:00:21;9.77;;;5.43;;
261;SDS011;114;48.260;10.988;2023-04-08T01:02:56;5.90;;;5.40;;
261;SDS011;114;48.260;10.988;2023-04-08T01:06:06;6.83;;;6.17;;
261;SDS011;114;48.260;10.988;2023-04-08T01:08:55;7.23;;;6.53;;
261;SDS011;114;48.260;10.988;2023-04-08T01:11:23;7.07;;;5.30;;
261;SDS011;114;48.260;10.988;2023-04-08T01:13:51;7.37;;;5.97;;
261;SDS011;114;48.260;10.988;2023-04-08T01:16:20;5.57;;;5.17;;
261;SDS011;114;48.260;10.988;2023-04-08T01:18:47;6.80;;;5.37;;
261;SDS011;114;48.260;10.988;2023-04-08T01:21:16;5.70;;;5.20;;
261;SDS011;114;48.260;10.988;2023-04-08T01:23:57;6.63;;;6.10;;
261;SDS011;114;48.260;10.988;2023-04-08T01:26:29;8.80;;;7.90;;
261;SDS011;114;48.260;10.988;2023-04-08T01:28:57;8.53;;;5.53;;
261;SDS011;114;48.260;10.988;2023-04-08T01:31:25;9.97;;;6.47;;
261;SDS011;114;48.260;10.988;2023-04-08T01:33:51;7.43;;;6.60;;
261;SDS011;114;48.260;10.988;2023-04-08T01:36:18;7.00;;;6.27;;
261;SDS011;114;48.260;10.988;2023-04-08T01:38:46;6.37;;;5.80;;
261;SDS011;114;48.260;10.988;2023-04-08T01:41:12;6.10;;;5.60;;
261;SDS011;114;48.260;10.988;2023-04-08T01:43:38;8.63;;;6.50;;
261;SDS011;114;48.260;10.988;2023-04-08T01:46:06;6.87;;;6.17;;
261;SDS011;114;48.260;10.988;2023-04-08T01:48:34;5.73;;;5.27;;
261;SDS011;114;48.260;10.988;2023-04-08T01:51:00;6.20;;;5.70;;
261;SDS011;114;48.260;10.988;2023-04-08T01:53:28;9.03;;;6.30;;
261;SDS011;114;48.260;10.988;2023-04-08T01:55:56;5.17;;;4.67;;
261;SDS011;114;48.260;10.988;2023-04-08T01:58:25;7.00;;;6.37;;
261;SDS011;114;48.260;10.988;2023-04-08T02:00:57;6.77;;;6.20;;
261;SDS011;114;48.260;10.988;2023-04-08T02:03:23;6.00;;;5.50;;
261;SDS011;114;48.260;10.988;2023-04-08T02:05:51;8.60;;;5.83;;
261;SDS011;114;48.260;10.988;2023-04-08T02:08:17;6.60;;;5.73;;
261;SDS011;114;48.260;10.988;2023-04-08T02:10:42;6.43;;;5.93;;
261;SDS011;114;48.260;10.988;2023-04-08T02:13:08;6.07;;;5.57;;
261;SDS011;114;48.260;10.988;2023-04-08T02:15:35;6.23;;;5.73;;
261;SDS011;114;48.260;10.988;2023-04-08T02:18:10;5.90;;;5.40;;
261;SDS011;114;48.260;10.988;2023-04-08T02:20:42;6.47;;;5.87;;
261;SDS011;114;48.260;10.988;2023-04-08T02:23:13;6.63;;;5.80;;
261;SDS011;114;48.260;10.988;2023-04-08T02:25:44;7.43;;;6.10;;
261;SDS011;114;48.260;10.988;2023-04-08T02:28:11;7.10;;;6.40;;
261;SDS011;114;48.260;10.988;2023-04-08T02:30:50;7.00;;;6.30;;
261;SDS011;114;48.260;10.988;2023-04-08T02:33:17;6.50;;;6.00;;
261;SDS011;114;48.260;10.988;2023-04-08T02:35:47;6.60;;;6.10;;
261;SDS011;114;48.260;10.988;2023-04-08T02:38:14;8.07;;;6.63;;
261;SDS011;114;48.260;10.988;2023-04-08T02:40:40;7.50;;;5.90;;
261;SDS011;114;48.260;10.988;2023-04-08T02:43:06;6.47;;;5.80;;
261;SDS011;114;48.260;10.988;2023-04-08T02:45:34;6.50;;;6.00;;
261;SDS011;114;48.260;10.988;2023-04-08T02:48:03;7.07;;;6.50;;
261;SDS011;114;48.260;10.988;2023-04-08T02:50:30;6.63;;;6.03;;
261;SDS011;114;48.260;10.988;2023-04-08T02:52:56;7.93;;;6.07;;
261;SDS011;114;48.260;10.988;2023-04-08T02:55:21;7.93;;;6.80;;
261;SDS011;114;48.260;10.988;2023-04-08T02:57:47;8.33;;;6.60;;
261;SDS011;114;48.260;10.988;2023-04-08T03:00:13;7.50;;;6.80;;
261;SDS011;114;48.260;10.988;2023-04-08T03:02:40;7.53;;;6.73;;
261;SDS011;114;48.260;10.988;2023-04-08T03:05:06;7.17;;;6.47;;
261;SDS011;114;48.260;10.988;2023-04-08T03:07:32;10.10;;;6.90;;
261;SDS011;114;48.260;10.988;2023-04-08T03:09:58;8.33;;;7.07;;
261;SDS011;114;48.260;10.988;2023-04-08T03:12:24;7.40;;;6.80;;
261;SDS011;114;48.260;10.988;2023-04-08T03:14:51;6.43;;;5.93;;
261;SDS011;114;48.260;10.988;2023-04-08T03:17:18;12.43;;;6.20;;
261;SDS011;114;48.260;10.988;2023-04-08T03:19:44;7.00;;;6.40;;
261;SDS011;114;48.260;10.988;2023-04-08T03:22:09;7.73;;;6.93;;
261;SDS011;114;48.260;10.988;2023-04-08T03:24:35;7.07;;;6.43;;
261;SDS011;114;48.260;10.988;2023-04-08T03:27:01;7.17;;;6.60;;
261;SDS011;114;48.260;10.988;2023-04-08T03:29:28;7.70;;;7.00;;
261;SDS011;114;48.260;10.988;2023-04-08T03:31:53;7.60;;;6.83;;
261;SDS011;114;48.260;10.988;2023-04-08T03:34:19;7.53;;;6.30;;
261;SDS011;114;48.260;10.988;2023-04-08T03:36:45;6.77;;;6.07;;
261;SDS011;114;48.260;10.988;2023-04-08T03:39:11;7.80;;;7.00;;
261;SDS011;114;48.260;10.988;2023-04-08T03:41:36;10.20;;;7.70;;
261;SDS011;114;48.260;10.988;2023-04-08T03:44:02;7.90;;;7.10;;
261;SDS011;114;48.260;10.988;2023-04-08T03:46:28;7.70;;;7.00;;
261;SDS011;114;48.260;10.988;2023-04-08T03:48:54;7.37;;;6.77;;
261;SDS011;114;48.260;10.988;2023-04-08T03:51:19;7.43;;;6.83;;
261;SDS011;114;48.260;10.988;2023-04-08T03:53:45;9.10;;;7.20;;
261;SDS011;114;48.260;10.988;2023-04-08T03:56:12;8.33;;;7.40;;
261;SDS011;114;48.260;10.988;2023-04-08T03:58:38;8.80;;;7.23;;
261;SDS011;114;48.260;10.988;2023-04-08T04:01:03;8.13;;;7.40;;
261;SDS011;114;48.260;10.988;2023-04-08T04:03:30;9.30;;;7.67;;
261;SDS011;114;48.260;10.988;2023-04-08T04:05:55;9.27;;;8.27;;
261;SDS011;114;48.260;10.988;2023-04-08T04:08:21;8.20;;;7.10;;
261;SDS011;114;48.260;10.988;2023-04-08T04:10:47;9.40;;;8.50;;
261;SDS011;114;48.260;10.988;2023-04-08T04:13:13;8.87;;;7.60;;
261;SDS011;114;48.260;10.988;2023-04-08T04:15:39;11.23;;;8.20;;
261;SDS011;114;48.260;10.988;2023-04-08T04:18:06;8.47;;;7.67;;
261;SDS011;114;48.260;10.988;2023-04-08T04:20:32;9.50;;;8.50;;
261;SDS011;114;48.260;10.988;2023-04-08T04:22:57;9.83;;;8.87;;
261;SDS011;114;48.260;10.988;2023-04-08T04:25:23;9.47;;;7.63;;
261;SDS011;114;48.260;10.988;2023-04-08T04:27:49;9.40;;;8.40;;
261;SDS011;114;48.260;10.988;2023-04-08T04:30:15;10.43;;;9.23;;
261;SDS011;114;48.260;10.988;2023-04-08T04:32:41;9.97;;;9.03;;
261;SDS011;114;48.260;10.988;2023-04-08T04:35:10;10.17;;;9.20;;
261;SDS011;114;48.260;10.988;2023-04-08T04:37:37;10.87;;;9.17;;
261;SDS011;114;48.260;10.988;2023-04-08T04:40:03;15.83;;;9.30;;
261;SDS011;114;48.260;10.988;2023-04-08T04:42:30;13.03;;;9.30;;
261;SDS011;114;48.260;10.988;2023-04-08T04:44:56;9.03;;;8.17;;
261;SDS011;114;48.260;10.988;2023-04-08T04:47:22;14.93;;;10.07;;
261;SDS011;114;48.260;10.988;2023-04-08T04:49:48;11.27;;;9.23;;
261;SDS011;114;48.260;10.988;2023-04-08T04:52:14;11.90;;;10.70;;
261;SDS011;114;48.260;10.988;2023-04-08T04:54:40;11.63;;;10.43;;
261;SDS011;114;48.260;10.988;2023-04-08T04:57:06;12.67;;;11.20;;
261;SDS011;114;48.260;10.988;2023-04-08T04:59:32;11.70;;;10.53;;
261;SDS011;114;48.260;10.988;2023-04-08T05:01:58;11.63;;;10.40;;
261;SDS011;114;48.260;10.988;2023-04-08T05:04:24;10.70;;;9.80;;
261;SDS011;114;48.260;10.988;2023-04-08T05:06:50;19.30;;;9.43;;
261;SDS011;114;48.260;10.988;2023-04-08T05:09:16;10.37;;;9.30;;
261;SDS011;114;48.260;10.988;2023-04-08T05:11:42;11.50;;;10.33;;
261;SDS011;114;48.260;10.988;2023-04-08T05:14:08;13.13;;;10.13;;
261;SDS011;114;48.260;10.988;2023-04-08T05:16:34;10.60;;;9.60;;
261;SDS011;114;48.260;10.988;2023-04-08T05:19:00;11.43;;;10.33;;
261;SDS011;114;48.260;10.988;2023-04-08T05:21:25;12.83;;;11.03;;
261;SDS011;114;48.260;10.988;2023-04-08T05:23:52;13.80;;;12.40;;
261;SDS011;114;48.260;10.988;2023-04-08T05:26:21;13.63;;;12.33;;
261;SDS011;114;48.260;10.988;2023-04-08T05:28:48;15.73;;;12.17;;
261;SDS011;114;48.260;10.988;2023-04-08T05:31:15;17.90;;;13.10;;
261;SDS011;114;48.260;10.988;2023-04-08T05:33:41;18.37;;;14.30;;
261;SDS011;114;48.260;10.988;2023-04-08T05:36:07;20.20;;;15.30;;
261;SDS011;114;48.260;10.988;2023-04-08T05:38:34;23.40;;;18.03;;
261;SDS011;114;48.260;10.988;2023-04-08T05:41:00;21.43;;;16.73;;
261;SDS011;114;48.260;10.988;2023-04-08T05:43:26;17.93;;;16.10;;
261;SDS011;114;48.260;10.988;2023-04-08T05:45:51;18.43;;;16.43;;
261;SDS011;114;48.260;10.988;2023-04-08T05:48:17;21.67;;;17.60;;
261;SDS011;114;48.260;10.988;2023-04-08T05:50:43;23.80;;;17.10;;
261;SDS011;114;48.260;10.988;2023-04-08T05:53:09;22.90;;;15.83;;
261;SDS011;114;48.260;10.988;2023-04-08T05:55:34;23.20;;;17.90;;
261;SDS011;114;48.260;10.988;2023-04-08T05:58:00;24.70;;;18.27;;
261;SDS011;114;48.260;10.988;2023-04-08T06:00:26;26.20;;;18.50;;
261;SDS011;114;48.260;10.988;2023-04-08T06:02:52;21.00;;;17.93;;
261;SDS011;114;48.260;10.988;2023-04-08T06:05:17;23.00;;;18.00;;
261;SDS011;114;48.260;10.988;2023-04-08T06:07:43;23.10;;;18.60;;
261;SDS011;114;48.260;10.988;2023-04-08T06:10:09;24.97;;;18.70;;
261;SDS011;114;48.260;10.988;2023-04-08T06:12:36;29.03;;;18.37;;
261;SDS011;114;48.260;10.988;2023-04-08T06:15:08;25.33;;;18.23;;
261;SDS011;114;48.260;10.988;2023-04-08T06:17:35;21.20;;;18.60;;
261;SDS011;114;48.260;10.988;2023-04-08T06:20:01;24.13;;;20.83;;
261;SDS011;114;48.260;10.988;2023-04-08T06:22:27;24.00;;;20.47;;
261;SDS011;114;48.260;10.988;2023-04-08T06:24:54;24.23;;;19.63;;
261;SDS011;114;48.260;10.988;2023-04-08T06:27:19;22.87;;;19.73;;
261;SDS011;114;48.260;10.988;2023-04-08T06:29:45;24.27;;;19.00;;
261;SDS011;114;48.260;10.988;2023-04-08T06:32:11;22.50;;;18.77;;
261;SDS011;114;48.260;10.988;2023-04-08T06:34:38;20.40;;;17.73;;
261;SDS011;114;48.260;10.988;2023-04-08T06:37:05;25.37;;;19.13;;
261;SDS011;114;48.260;10.988;2023-04-08T06:39:31;21.80;;;18.07;;
261;SDS011;114;48.260;10.988;2023-04-08T06:41:56;20.77;;;17.43;;
261;SDS011;114;48.260;10.988;2023-04-08T06:44:22;22.13;;;16.83;;
261;SDS011;114;48.260;10.988;2023-04-08T06:46:48;20.47;;;17.40;;
261;SDS011;114;48.260;10.988;2023-04-08T06:49:14;24.70;;;18.10;;
261;SDS011;114;48.260;10.988;2023-04-08T06:51:40;19.53;;;16.80;;
261;SDS011;114;48.260;10.988;2023-04-08T06:54:05;19.83;;;17.77;;
261;SDS011;114;48.260;10.988;2023-04-08T06:56:31;21.37;;;16.80;;
261;SDS011;114;48.260;10.988;2023-04-08T06:58:57;19.27;;;17.10;;
261;SDS011;114;48.260;10.988;2023-04-08T07:01:23;20.03;;;15.83;;
261;SDS011;114;48.260;10.988;2023-04-08T07:03:49;19.17;;;15.90;;
261;SDS011;114;48.260;10.988;2023-04-08T07:06:15;17.20;;;14.80;;
261;SDS011;114;48.260;10.988;2023-04-08T07:08:41;16.67;;;14.90;;
261;SDS011;114;48.260;10.988;2023-04-08T07:11:07;20.83;;;16.47;;
261;SDS011;114;48.260;10.988;2023-04-08T07:13:33;20.50;;;17.27;;
261;SDS011;114;48.260;10.988;2023-04-08T07:15:58;16.00;;;14.00;;
261;SDS011;114;48.260;10.988;2023-04-08T07:18:24;18.10;;;16.20;;
261;SDS011;114;48.260;10.988;2023-04-08T07:20:53;18.50;;;15.37;;
261;SDS011;114;48.260;10.988;2023-04-08T07:23:19;18.60;;;13.90;;
261;SDS011;114;48.260;10.988;2023-04-08T07:25:45;17.47;;;14.70;;
261;SDS011;114;48.260;10.988;2023-04-08T07:28:12;16.30;;;13.30;;
261;SDS011;114;48.260;10.988;2023-04-08T07:30:39;16.27;;;13.47;;
261;SDS011;114;48.260;10.988;2023-04-08T07:33:05;14.50;;;13.00;;
261;SDS011;114;48.260;10.988;2023-04-08T07:35:30;14.13;;;12.70;;
261;SDS011;114;48.260;10.988;2023-04-08T07:37:57;18.13;;;13.33;;
261;SDS011;114;48.260;10.988;2023-04-08T07:40:23;16.43;;;14.47;;
261;SDS011;114;48.260;10.988;2023-04-08T07:42:49;15.43;;;13.83;;
261;SDS011;114;48.260;10.988;2023-04-08T07:45:15;17.10;;;14.87;;
261;SDS011;114;48.260;10.988;2023-04-08T07:47:41;19.70;;;14.60;;
261;SDS011;114;48.260;10.988;2023-04-08T07:50:06;20.27;;;13.07;;
261;SDS011;114;48.260;10.988;2023-04-08T07:52:32;16.00;;;13.47;;
261;SDS011;114;48.260;10.988;2023-04-08T07:54:58;14.20;;;11.87;;
261;SDS011;114;48.260;10.988;2023-04-08T07:57:26;15.50;;;12.67;;
261;SDS011;114;48.260;10.988;2023-04-08T07:59:51;17.37;;;12.73;;
261;SDS011;114;48.260;10.988;2023-04-08T08:02:17;19.40;;;12.10;;
261;SDS011;114;48.260;10.988;2023-04-08T08:04:43;12.70;;;10.87;;
261;SDS011;114;48.260;10.988;2023-04-08T08:07:09;12.20;;;10.63;;
261;SDS011;114;48.260;10.988;2023-04-08T08:09:35;16.00;;;12.87;;
261;SDS011;114;48.260;10.988;2023-04-08T08:12:00;13.13;;;11.83;;
261;SDS011;114;48.260;10.988;2023-04-08T08:14:26;14.40;;;12.03;;
261;SDS011;114;48.260;10.988;2023-04-08T08:16:52;15.20;;;13.60;;
261;SDS011;114;48.260;10.988;2023-04-08T08:19:19;16.20;;;11.63;;
261;SDS011;114;48.260;10.988;2023-04-08T08:21:45;14.50;;;12.93;;
261;SDS011;114;48.260;10.988;2023-04-08T08:24:11;15.17;;;11.63;;
261;SDS011;114;48.260;10.988;2023-04-08T08:26:37;13.53;;;11.63;;
261;SDS011;114;48.260;10.988;2023-04-08T08:29:03;13.83;;;11.57;;
261;SDS011;114;48.260;10.988;2023-04-08T08:31:30;13.63;;;11.27;;
261;SDS011;114;48.260;10.988;2023-04-08T08:33:56;13.40;;;12.00;;
261;SDS011;114;48.260;10.988;2023-04-08T08:36:22;14.43;;;12.27;;
261;SDS011;114;48.260;10.988;2023-04-08T08:38:47;16.83;;;12.80;;
261;SDS011;114;48.260;10.988;2023-04-08T08:41:13;14.13;;;11.67;;
261;SDS011;114;48.260;10.988;2023-04-08T08:43:39;13.00;;;11.70;;
261;SDS011;114;48.260;10.988;2023-04-08T08:46:07;15.23;;;12.00;;
261;SDS011;114;48.260;10.988;2023-04-08T08:48:35;14.97;;;13.37;;
261;SDS011;114;48.260;10.988;2023-04-08T08:51:12;13.00;;;11.60;;
261;SDS011;114;48.260;10.988;2023-04-08T08:53:38;18.97;;;12.50;;
261;SDS011;114;48.260;10.988;2023-04-08T08:56:09;16.80;;;12.73;;
261;SDS011;114;48.260;10.988;2023-04-08T08:58:37;16.07;;;12.93;;
261;SDS011;114;48.260;10.988;2023-04-08T09:01:26;20.07;;;11.80;;
261;SDS011;114;48.260;10.988;2023-04-08T09:04:08;12.90;;;11.17;;
261;SDS011;114;48.260;10.988;2023-04-08T09:06:35;14.90;;;11.20;;
261;SDS011;114;48.260;10.988;2023-04-08T09:09:01;17.17;;;10.93;;
261;SDS011;114;48.260;10.988;2023-04-08T09:11:30;14.50;;;12.03;;
261;SDS011;114;48.260;10.988;2023-04-08T09:13:56;15.30;;;11.33;;
261;SDS011;114;48.260;10.988;2023-04-08T09:16:22;11.70;;;10.63;;
261;SDS011;114;48.260;10.988;2023-04-08T09:18:48;16.33;;;11.70;;
261;SDS011;114;48.260;10.988;2023-04-08T09:21:15;13.17;;;11.77;;
261;SDS011;114;48.260;10.988;2023-04-08T09:23:45;13.00;;;11.10;;
261;SDS011;114;48.260;10.988;2023-04-08T09:26:12;18.43;;;13.67;;
261;SDS011;114;48.260;10.988;2023-04-08T09:28:56;13.30;;;12.00;;
261;SDS011;114;48.260;10.988;2023-04-08T09:31:30;14.50;;;11.37;;
261;SDS011;114;48.260;10.988;2023-04-08T09:33:58;13.13;;;11.13;;
261;SDS011;114;48.260;10.988;2023-04-08T09:36:33;13.40;;;12.00;;
261;SDS011;114;48.260;10.988;2023-04-08T09:38:58;13.27;;;11.93;;
261;SDS011;114;48.260;10.988;2023-04-08T09:41:24;16.73;;;12.40;;
261;SDS011;114;48.260;10.988;2023-04-08T09:43:52;19.67;;;14.53;;
261;SDS011;114;48.260;10.988;2023-04-08T09:46:30;13.23;;;11.83;;
261;SDS011;114;48.260;10.988;2023-04-08T09:49:06;13.23;;;11.83;;
261;SDS011;114;48.260;10.988;2023-04-08T09:51:44;12.93;;;11.63;;
261;SDS011;114;48.260;10.988;2023-04-08T09:54:28;14.10;;;12.10;;
261;SDS011;114;48.260;10.988;2023-04-08T09:57:08;17.37;;;12.33;;
261;SDS011;114;48.260;10.988;2023-04-08T09:59:37;13.20;;;11.17;;
261;SDS011;114;48.260;10.988;2023-04-08T10:02:12;13.70;;;11.77;;
261;SDS011;114;48.260;10.988;2023-04-08T10:04:45;12.80;;;11.20;;
261;SDS011;114;48.260;10.988;2023-04-08T10:07:16;15.00;;;11.13;;
261;SDS011;114;48.260;10.988;2023-04-08T10:09:43;15.60;;;11.03;;
261;SDS011;114;48.260;10.988;2023-04-08T10:12:09;15.63;;;13.93;;
261;SDS011;114;48.260;10.988;2023-04-08T10:14:35;13.93;;;12.40;;
261;SDS011;114;48.260;10.988;2023-04-08T10:20:00;12.80;;;11.57;;
261;SDS011;114;48.260;10.988;2023-04-08T10:27:42;12.77;;;11.47;;
261;SDS011;114;48.260;10.988;2023-04-08T10:32:53;15.70;;;11.77;;
261;SDS011;114;48.260;10.988;2023-04-08T10:35:30;14.80;;;12.07;;
261;SDS011;114;48.260;10.988;2023-04-08T10:37:59;14.30;;;11.30;;
261;SDS011;114;48.260;10.988;2023-04-08T10:40:25;15.10;;;12.27;;
261;SDS011;114;48.260;10.988;2023-04-08T10:42:57;12.17;;;10.87;;
261;SDS011;114;48.260;10.988;2023-04-08T10:45:23;13.23;;;11.03;;
261;SDS011;114;48.260;10.988;2023-04-08T10:47:50;13.87;;;11.90;;
261;SDS011;114;48.260;10.988;2023-04-08T10:50:16;14.33;;;11.43;;
261;SDS011;114;48.260;10.988;2023-04-08T10:52:49;13.40;;;11.70;;
261;SDS011;114;48.260;10.988;2023-04-08T10:55:21;13.00;;;10.97;;
261;SDS011;114;48.260;10.988;2023-04-08T10:57:51;10.97;;;9.57;;
261;SDS011;114;48.260;10.988;2023-04-08T11:00:18;13.43;;;11.40;;
261;SDS011;114;48.260;10.988;2023-04-08T11:02:59;11.53;;;10.27;;
261;SDS011;114;48.260;10.988;2023-04-08T11:05:26;12.60;;;11.30;;
261;SDS011;114;48.260;10.988;2023-04-08T11:07:52;12.63;;;10.00;;
261;SDS011;114;48.260;10.988;2023-04-08T11:10:18;13.47;;;10.60;;
261;SDS011;114;48.260;10.988;2023-04-08T11:12:45;11.97;;;10.87;;
261;SDS011;114;48.260;10.988;2023-04-08T11:15:11;14.00;;;10.60;;
261;SDS011;114;48.260;10.988;2023-04-08T11:17:37;13.47;;;11.27;;
261;SDS011;114;48.260;10.988;2023-04-08T11:20:03;14.93;;;11.03;;
261;SDS011;114;48.260;10.988;2023-04-08T11:22:31;10.97;;;9.87;;
261;SDS011;114;48.260;10.988;2023-04-08T11:24:58;12.80;;;10.37;;
261;SDS011;114;48.260;10.988;2023-04-08T11:27:25;15.13;;;10.20;;
261;SDS011;114;48.260;10.988;2023-04-08T11:29:53;13.67;;;11.17;;
261;SDS011;114;48.260;10.988;2023-04-08T11:32:20;12.07;;;10.33;;
261;SDS011;114;48.260;10.988;2023-04-08T11:34:47;12.07;;;10.77;;
261;SDS011;114;48.260;10.988;2023-04-08T11:37:17;17.50;;;11.27;;
261;SDS011;114;48.260;10.988;2023-04-08T11:39:43;14.13;;;10.90;;
261;SDS011;114;48.260;10.988;2023-04-08T11:42:24;11.83;;;10.33;;
261;SDS011;114;48.260;10.988;2023-04-08T11:44:51;13.40;;;12.00;;
261;SDS011;114;48.260;10.988;2023-04-08T11:47:17;14.20;;;10.27;;
261;SDS011;114;48.260;10.988;2023-04-08T11:49:45;13.47;;;11.37;;
261;SDS011;114;48.260;10.988;2023-04-08T11:52:12;12.33;;;11.03;;
261;SDS011;114;48.260;10.988;2023-04-08T11:54:41;12.60;;;10.27;;
261;SDS011;114;48.260;10.988;2023-04-08T11:57:07;16.80;;;11.53;;
261;SDS011;114;48.260;10.988;2023-04-08T11:59:34;15.17;;;11.87;;
261;SDS011;114;48.260;10.988;2023-04-08T12:02:01;14.67;;;13.00;;
261;SDS011;114;48.260;10.988;2023-04-08T12:04:27;17.00;;;10.87;;
261;SDS011;114;48.260;10.988;2023-04-08T12:06:53;19.43;;;12.07;;
261;SDS011;114;48.260;10.988;2023-04-08T12:09:20;12.80;;;10.80;;
261;SDS011;114;48.260;10.988;2023-04-08T12:11:46;11.50;;;10.40;;
261;SDS011;114;48.260;10.988;2023-04-08T12:14:12;11.53;;;10.03;;
261;SDS011;114;48.260;10.988;2023-04-08T12:16:40;18.10;;;11.00;;
261;SDS011;114;48.260;10.988;2023-04-08T12:19:06;17.60;;;11.30;;
261;SDS011;114;48.260;10.988;2023-04-08T12:21:32;13.40;;;11.20;;
261;SDS011;114;48.260;10.988;2023-04-08T12:23:58;12.70;;;11.30;;
261;SDS011;114;48.260;10.988;2023-04-08T12:26:25;13.73;;;12.20;;
261;SDS011;114;48.260;10.988;2023-04-08T12:28:51;14.20;;;12.00;;
261;SDS011;114;48.260;10.988;2023-04-08T12:31:17;13.07;;;10.80;;
261;SDS011;114;48.260;10.988;2023-04-08T12:33:42;16.83;;;12.30;;
261;SDS011;114;48.260;10.988;2023-04-08T12:36:08;14.37;;;11.30;;
261;SDS011;114;48.260;10.988;2023-04-08T12:38:34;13.60;;;11.50;;
261;SDS011;114;48.260;10.988;2023-04-08T12:40:59;13.03;;;11.30;;
261;SDS011;114;48.260;10.988;2023-04-08T12:43:25;14.73;;;11.47;;
261;SDS011;114;48.260;10.988;2023-04-08T12:45:51;17.93;;;12.17;;
261;SDS011;114;48.260;10.988;2023-04-08T12:48:17;12.30;;;10.97;;
261;SDS011;114;48.260;10.988;2023-04-08T12:50:43;14.43;;;12.57;;
261;SDS011;114;48.260;10.988;2023-04-08T12:53:09;16.43;;;11.00;;
261;SDS011;114;48.260;10.988;2023-04-08T12:55:35;13.27;;;11.23;;
261;SDS011;114;48.260;10.988;2023-04-08T12:58:01;15.97;;;11.30;;
261;SDS011;114;48.260;10.988;2023-04-08T13:00:27;12.77;;;11.47;;
261;SDS011;114;48.260;10.988;2023-04-08T13:02:52;15.20;;;12.13;;
261;SDS011;114;48.260;10.988;2023-04-08T13:05:18;15.17;;;11.70;;
261;SDS011;114;48.260;10.988;2023-04-08T13:07:44;14.27;;;11.33;;
261;SDS011;114;48.260;10.988;2023-04-08T13:10:10;16.93;;;11.40;;
261;SDS011;114;48.260;10.988;2023-04-08T13:12:36;11.10;;;9.97;;
261;SDS011;114;48.260;10.988;2023-04-08T13:15:04;17.70;;;12.10;;
261;SDS011;114;48.260;10.988;2023-04-08T13:17:31;13.30;;;11.10;;
261;SDS011;114;48.260;10.988;2023-04-08T13:19:56;13.40;;;10.70;;
261;SDS011;114;48.260;10.988;2023-04-08T13:22:22;10.83;;;9.70;;
261;SDS011;114;48.260;10.988;2023-04-08T13:24:48;14.20;;;11.50;;
261;SDS011;114;48.260;10.988;2023-04-08T13:27:14;11.57;;;10.40;;
261;SDS011;114;48.260;10.988;2023-04-08T13:29:40;11.40;;;10.10;;
261;SDS011;114;48.260;10.988;2023-04-08T13:32:05;11.90;;;10.13;;
261;SDS011;114;48.260;10.988;2023-04-08T13:34:31;12.53;;;10.33;;
261;SDS011;114;48.260;10.988;2023-04-08T13:36:57;10.67;;;9.53;;
261;SDS011;114;48.260;10.988;2023-04-08T13:39:23;11.40;;;9.50;;
261;SDS011;114;48.260;10.988;2023-04-08T13:41:49;9.93;;;9.00;;
261;SDS011;114;48.260;10.988;2023-04-08T13:44:14;11.30;;;8.97;;
261;SDS011;114;48.260;10.988;2023-04-08T13:46:41;9.33;;;8.30;;
261;SDS011;114;48.260;10.988;2023-04-08T13:49:06;11.73;;;9.80;;
261;SDS011;114;48.260;10.988;2023-04-08T13:51:33;8.80;;;8.10;;
261;SDS011;114;48.260;10.988;2023-04-08T13:53:59;8.27;;;7.57;;
261;SDS011;114;48.260;10.988;2023-04-08T13:56:26;8.80;;;8.00;;
261;SDS011;114;48.260;10.988;2023-04-08T13:58:52;10.03;;;9.03;;
261;SDS011;114;48.260;10.988;2023-04-08T14:01:18;10.10;;;9.20;;
261;SDS011;114;48.260;10.988;2023-04-08T14:03:43;14.90;;;12.77;;
261;SDS011;114;48.260;10.988;2023-04-08T14:06:09;10.93;;;9.57;;
261;SDS011;114;48.260;10.988;2023-04-08T14:08:35;9.30;;;8.50;;
261;SDS011;114;48.260;10.988;2023-04-08T14:11:02;10.23;;;9.10;;
261;SDS011;114;48.260;10.988;2023-04-08T14:13:27;10.13;;;9.13;;
261;SDS011;114;48.260;10.988;2023-04-08T14:15:53;17.60;;;10.20;;
261;SDS011;114;48.260;10.988;2023-04-08T14:18:22;16.63;;;8.90;;
261;SDS011;114;48.260;10.988;2023-04-08T14:20:47;10.67;;;9.30;;
261;SDS011;114;48.260;10.988;2023-04-08T14:23:13;10.67;;;9.67;;
261;SDS011;114;48.260;10.988;2023-04-08T14:25:40;11.77;;;10.00;;
261;SDS011;114;48.260;10.988;2023-04-08T14:28:06;10.30;;;9.20;;
261;SDS011;114;48.260;10.988;2023-04-08T14:30:32;13.40;;;10.30;;
261;SDS011;114;48.260;10.988;2023-04-08T14:33:00;13.00;;;10.90;;
261;SDS011;114;48.260;10.988;2023-04-08T14:35:25;14.47;;;10.70;;
261;SDS011;114;48.260;10.988;2023-04-08T14:37:51;12.23;;;10.30;;
261;SDS011;114;48.260;10.988;2023-04-08T14:40:17;9.53;;;8.63;;
261;SDS011;114;48.260;10.988;2023-04-08T14:42:42;9.63;;;8.70;;
261;SDS011;114;48.260;10.988;2023-04-08T14:45:09;10.03;;;8.60;;
261;SDS011;114;48.260;10.988;2023-04-08T14:47:35;9.40;;;8.50;;
261;SDS011;114;48.260;10.988;2023-04-08T14:50:01;8.80;;;7.80;;
261;SDS011;114;48.260;10.988;2023-04-08T14:52:26;9.30;;;8.00;;
261;SDS011;114;48.260;10.988;2023-04-08T14:54:52;8.53;;;7.90;;
261;SDS011;114;48.260;10.988;2023-04-08T14:57:18;7.80;;;7.10;;
261;SDS011;114;48.260;10.988;2023-04-08T14:59:44;9.30;;;8.10;;
261;SDS011;114;48.260;10.988;2023-04-08T15:02:10;9.10;;;8.10;;
261;SDS011;114;48.260;10.988;2023-04-08T15:04:36;9.40;;;8.53;;
261;SDS011;114;48.260;10.988;2023-04-08T15:07:02;8.43;;;7.73;;
261;SDS011;114;48.260;10.988;2023-04-08T15:09:31;8.77;;;7.97;;
261;SDS011;114;48.260;10.988;2023-04-08T15:11:57;7.83;;;7.23;;
261;SDS011;114;48.260;10.988;2023-04-08T15:14:23;9.90;;;8.73;;
261;SDS011;114;48.260;10.988;2023-04-08T15:16:48;12.07;;;10.80;;
261;SDS011;114;48.260;10.988;2023-04-08T15:19:14;10.03;;;9.13;;
261;SDS011;114;48.260;10.988;2023-04-08T15:21:42;8.90;;;8.17;;
261;SDS011;114;48.260;10.988;2023-04-08T15:24:08;9.57;;;8.77;;